Time;durP1;ratioP1;P1;durP2;ratioP2;P2;SDS_P1;SDS_P2;PMS_P1;PMS_P2;Temp;Humidity;BMP_temperature;BMP_pressure;BME280_temperature;BME280_humidity;BME280_pressure;Samples;Min_cycle;Max_cycle;Signal;HPM_P1;HPM_P2
2021/04/01 00:01:09;;;;;;;7.70;5.73;;;;;;;10.96;71.15;98913.19;5037207;28;20049;-64
2021/04/01 00:03:37;;;;;;;9.60;5.97;;;;;;;10.83;71.17;98898.84;5040374;28;20047;-64
2021/04/01 00:06:02;;;;;;;6.23;5.63;;;;;;;10.74;71.41;98907.53;5041722;28;20025;-63
2021/04/01 00:08:28;;;;;;;9.77;6.33;;;;;;;10.66;71.83;98894.00;5039621;28;20084;-63
2021/04/01 00:10:53;;;;;;;7.47;5.00;;;;;;;10.61;72.02;98900.88;5037741;28;20025;-63
2021/04/01 00:13:18;;;;;;;8.17;5.60;;;;;;;10.49;72.25;98881.41;5038610;28;20025;-63
2021/04/01 00:15:44;;;;;;;8.70;5.63;;;;;;;10.46;72.31;98889.16;5036841;28;20076;-63
2021/04/01 00:18:17;;;;;;;8.87;6.50;;;;;;;10.42;72.35;98899.47;5039567;28;20369;-63
2021/04/01 00:20:43;;;;;;;6.27;4.50;;;;;;;10.30;72.87;98884.28;5041480;28;20029;-63
2021/04/01 00:23:08;;;;;;;8.93;5.50;;;;;;;10.30;72.93;98894.53;5041802;28;20488;-63
2021/04/01 00:25:34;;;;;;;5.63;4.60;;;;;;;10.24;73.39;98884.34;5040591;28;20037;-63
2021/04/01 00:27:59;;;;;;;5.80;5.20;;;;;;;10.16;74.06;98870.78;5039934;28;20064;-63
2021/04/01 00:30:25;;;;;;;7.50;5.37;;;;;;;10.26;74.30;98873.22;5040131;28;20036;-63
2021/04/01 00:32:50;;;;;;;10.00;5.50;;;;;;;10.35;74.13;98874.81;5038960;28;20326;-63
2021/04/01 00:35:16;;;;;;;7.27;5.97;;;;;;;10.37;73.58;98870.50;5037812;28;20029;-63
2021/04/01 00:37:41;;;;;;;6.90;5.00;;;;;;;10.33;73.51;98864.56;5038342;28;20540;-63
2021/04/01 00:40:08;;;;;;;7.90;5.17;;;;;;;10.30;73.46;98863.78;5040119;28;20033;-63
2021/04/01 00:42:35;;;;;;;9.53;5.50;;;;;;;10.30;73.85;98863.78;5035450;28;20309;-63
2021/04/01 00:45:06;;;;;;;7.93;5.70;;;;;;;10.31;73.60;98871.41;5036415;28;20040;-63
2021/04/01 00:47:35;;;;;;;8.50;5.30;;;;;;;10.38;73.42;98872.19;5033727;28;20052;-63
2021/04/01 00:50:00;;;;;;;5.60;4.50;;;;;;;10.44;73.20;98847.31;5036365;28;20251;-61
2021/04/01 00:52:26;;;;;;;9.10;5.13;;;;;;;10.77;72.09;98870.75;5034404;28;20430;-64
2021/04/01 00:54:51;;;;;;;9.10;4.83;;;;;;;10.90;71.72;98865.41;5036988;28;20037;-64
2021/04/01 00:57:17;;;;;;;9.30;5.50;;;;;;;11.04;71.34;98861.75;5035665;28;20132;-62
2021/04/01 00:59:43;;;;;;;8.77;4.37;;;;;;;11.16;70.32;98857.25;5036097;28;20053;-63
2021/04/01 01:02:08;;;;;;;10.17;4.33;;;;;;;11.24;70.36;98854.56;5040246;28;20025;-64
2021/04/01 01:04:35;;;;;;;7.93;4.57;;;;;;;11.37;69.37;98858.59;5034886;28;20268;-64
2021/04/01 01:07:00;;;;;;;8.37;5.30;;;;;;;11.44;69.40;98855.88;5036998;28;20037;-64
2021/04/01 01:09:26;;;;;;;8.27;4.40;;;;;;;11.48;68.43;98851.53;5039399;28;20036;-64
2021/04/01 01:11:51;;;;;;;7.77;5.07;;;;;;;11.45;68.45;98849.03;5038775;28;20080;-64
2021/04/01 01:14:17;;;;;;;8.07;4.63;;;;;;;11.46;68.85;98851.53;5033606;28;20371;-64
2021/04/01 01:16:43;;;;;;;11.37;5.13;;;;;;;11.50;68.57;98854.06;5035617;28;20033;-63
2021/04/01 01:19:09;;;;;;;9.90;4.33;;;;;;;11.49;68.21;98848.09;5034389;28;20030;-63
2021/04/01 01:21:35;;;;;;;7.63;4.50;;;;;;;11.52;68.14;98842.88;5036227;28;20021;-63
2021/04/01 01:24:01;;;;;;;4.63;4.10;;;;;;;11.58;67.47;98836.78;5034447;28;20381;-64
2021/04/01 01:26:26;;;;;;;7.07;4.90;;;;;;;11.68;67.73;98838.28;5032818;28;20441;-64
2021/04/01 01:28:52;;;;;;;9.53;4.67;;;;;;;11.60;68.02;98830.75;5036083;28;20120;-64
2021/04/01 01:31:20;;;;;;;10.43;5.20;;;;;;;11.67;67.20;98834.06;5036381;28;20031;-64
2021/04/01 01:33:45;;;;;;;4.50;3.97;;;;;;;11.75;66.23;98834.78;5036822;28;20029;-64
2021/04/01 01:36:13;;;;;;;6.00;3.80;;;;;;;11.84;66.67;98835.41;5041889;28;20040;-64
2021/04/01 01:38:39;;;;;;;4.60;3.70;;;;;;;11.92;66.20;98827.56;5035083;28;20448;-64
2021/04/01 01:41:05;;;;;;;9.83;4.23;;;;;;;12.17;64.47;98822.72;5035940;28;20330;-64
2021/04/01 01:43:32;;;;;;;8.47;4.13;;;;;;;12.22;64.23;98810.63;5033661;28;20038;-64
2021/04/01 01:45:57;;;;;;;6.67;3.97;;;;;;;12.26;64.08;98812.25;5034807;28;20348;-64
2021/04/01 01:48:23;;;;;;;7.80;4.25;;;;;;;12.32;63.82;98806.94;5033104;28;20060;-64
2021/04/01 01:50:48;;;;;;;9.00;3.80;;;;;;;12.32;63.84;98805.22;5041755;28;20036;-64
2021/04/01 01:53:14;;;;;;;4.60;3.93;;;;;;;12.33;63.44;98800.94;5034841;28;20033;-64
2021/04/01 01:55:40;;;;;;;5.43;3.90;;;;;;;12.20;63.62;98797.81;5037745;28;20029;-64
2021/04/01 01:58:06;;;;;;;4.90;4.07;;;;;;;12.15;64.22;98803.91;5035041;28;20049;-64
2021/04/01 02:00:42;;;;;;;4.40;4.00;;;;;;;12.15;63.62;98796.19;5036404;28;20087;-64
2021/04/01 02:03:08;;;;;;;8.43;3.90;;;;;;;12.30;62.77;98790.72;5038947;28;20026;-64
2021/04/01 02:05:36;;;;;;;7.47;3.25;;;;;;;12.41;62.13;98791.31;5039099;28;20279;-64
2021/04/01 02:08:03;;;;;;;5.97;3.58;;;;;;;12.41;61.93;98787.88;5035687;28;20037;-64
2021/04/01 02:10:33;;;;;;;5.47;3.15;;;;;;;12.42;62.42;98782.72;5039734;28;20029;-64
2021/04/01 02:12:59;;;;;;;4.25;3.40;;;;;;;12.43;61.90;98784.41;5041210;28;20029;-64
2021/04/01 02:15:28;;;;;;;3.88;3.45;;;;;;;12.76;61.24;98777.59;5037333;28;20029;-64
2021/04/01 02:18:06;;;;;;;3.70;3.38;;;;;;;12.81;60.42;98779.13;5033563;28;20036;-64
2021/04/01 02:20:39;;;;;;;3.70;3.10;;;;;;;12.82;60.24;98769.69;5033832;28;20330;-64
2021/04/01 02:23:05;;;;;;;5.97;3.78;;;;;;;12.73;60.80;98777.69;5038383;28;20121;-63
2021/04/01 02:25:30;;;;;;;10.25;5.10;;;;;;;12.70;61.04;98777.72;5038615;28;20036;-62
2021/04/01 02:27:55;;;;;;;4.72;3.42;;;;;;;12.60;61.20;98771.16;5034788;28;20029;-63
2021/04/01 02:30:21;;;;;;;5.20;4.03;;;;;;;12.52;61.40;98778.22;5036048;28;20029;-63
2021/04/01 02:32:47;;;;;;;8.20;3.92;;;;;;;12.45;61.90;98780.06;5034952;28;20155;-64
2021/04/01 02:35:13;;;;;;;5.82;3.63;;;;;;;12.31;62.11;98784.69;5038812;28;20167;-64
2021/04/01 02:37:39;;;;;;;6.43;3.63;;;;;;;12.19;62.53;98778.09;5034682;28;20049;-64
2021/04/01 02:40:05;;;;;;;5.32;3.33;;;;;;;12.06;62.59;98783.56;5037452;28;20030;-64
2021/04/01 02:42:30;;;;;;;6.68;3.53;;;;;;;11.84;63.62;98788.31;5038718;28;20025;-64
2021/04/01 02:44:56;;;;;;;6.18;4.47;;;;;;;11.64;64.82;98786.16;5034414;28;20047;-64
2021/04/01 02:47:21;;;;;;;3.90;3.50;;;;;;;11.45;65.46;98787.41;5035883;28;20279;-62
2021/04/01 02:49:46;;;;;;;9.85;4.70;;;;;;;11.34;65.82;98779.06;5038812;28;20115;-63
2021/04/01 02:52:12;;;;;;;4.80;3.55;;;;;;;11.58;64.69;98777.75;5035728;28;20291;-63
2021/04/01 02:54:37;;;;;;;7.32;3.22;;;;;;;12.12;62.51;98778.28;5039271;28;20029;-63
2021/04/01 02:57:12;;;;;;;7.18;3.38;;;;;;;12.79;59.99;98772.34;5031696;28;20120;-63
2021/04/01 02:59:38;;;;;;;7.88;3.60;;;;;;;13.12;58.58;98752.63;5035917;28;20054;-63
2021/04/01 03:02:03;;;;;;;4.88;3.53;;;;;;;13.25;58.40;98772.00;5032730;28;20284;-64
2021/04/01 03:04:31;;;;;;;7.05;3.60;;;;;;;13.16;58.70;98778.25;5035932;28;20078;-63
2021/04/01 03:06:56;;;;;;;5.43;4.15;;;;;;;12.95;59.43;98778.78;5039391;28;20033;-63
2021/04/01 03:09:22;;;;;;;7.03;4.13;;;;;;;12.87;60.04;98775.56;5033468;28;20275;-63
2021/04/01 03:11:47;;;;;;;5.80;3.88;;;;;;;12.72;60.78;98779.41;5036676;28;20032;-63
2021/04/01 03:14:12;;;;;;;5.72;3.67;;;;;;;12.52;60.77;98776.44;5041353;28;20025;-63
2021/04/01 03:16:38;;;;;;;8.43;4.22;;;;;;;12.30;61.73;98777.88;5033890;28;20413;-63
2021/04/01 03:19:03;;;;;;;6.63;4.03;;;;;;;12.22;62.16;98780.59;5039529;28;20119;-64
2021/04/01 03:21:29;;;;;;;5.03;3.70;;;;;;;12.10;62.54;98775.75;5033181;28;20324;-62
2021/04/01 03:23:54;;;;;;;6.60;4.18;;;;;;;12.11;62.58;98764.59;5037042;28;20041;-64
2021/04/01 03:26:19;;;;;;;5.50;3.70;;;;;;;12.09;62.30;98768.94;5036560;28;20025;-64
2021/04/01 03:28:45;;;;;;;5.38;3.75;;;;;;;12.08;62.93;98766.41;5038705;28;20426;-63
2021/04/01 03:31:10;;;;;;;9.10;4.72;;;;;;;12.04;62.86;98754.50;5035635;28;20061;-62
2021/04/01 03:33:35;;;;;;;9.02;4.35;;;;;;;12.00;62.81;98760.59;5036160;28;20030;-63
2021/04/01 03:36:01;;;;;;;7.15;3.80;;;;;;;11.85;63.28;98761.75;5037577;28;20124;-63
2021/04/01 03:38:27;;;;;;;5.32;4.22;;;;;;;11.81;63.65;98757.56;5032962;28;20025;-62
2021/04/01 03:40:54;;;;;;;9.57;4.25;;;;;;;11.68;64.13;98756.97;5039002;28;20025;-64
2021/04/01 03:43:22;;;;;;;5.45;3.70;;;;;;;11.66;64.65;98763.00;5036814;28;20076;-63
2021/04/01 03:45:47;;;;;;;7.75;3.80;;;;;;;11.71;64.44;98762.00;5037059;28;20311;-64
2021/04/01 03:48:13;;;;;;;5.93;4.43;;;;;;;11.75;64.52;98763.66;5037942;28;20063;-64
2021/04/01 03:50:38;;;;;;;5.60;3.83;;;;;;;11.74;64.69;98767.16;5046124;28;20017;-64
2021/04/01 03:53:04;;;;;;;7.10;5.03;;;;;;;11.76;64.09;98762.81;5038836;28;20033;-64
2021/04/01 03:55:42;;;;;;;13.57;3.87;;;;;;;11.71;64.66;98764.59;5039398;28;20037;-64
2021/04/01 04:16:11;;;;;;;7.20;4.37;;;;;;;11.38;65.27;98752.44;5037644;28;20053;-64
2021/04/01 04:18:36;;;;;;;6.03;4.65;;;;;;;11.28;66.00;98750.97;5042132;28;20029;-61
2021/04/01 04:21:02;;;;;;;7.23;4.30;;;;;;;11.22;66.32;98751.06;5039488;28;20366;-64
2021/04/01 04:23:28;;;;;;;6.97;4.40;;;;;;;11.58;64.77;98752.91;5039647;28;20049;-67
2021/04/01 04:25:55;;;;;;;8.90;4.50;;;;;;;11.86;63.81;98756.59;5037253;28;20096;-67
2021/04/01 04:30:52;;;;;;;5.95;5.25;;;;;;;12.07;62.39;98764.69;5035742;28;20865;-68
2021/04/01 04:33:18;;;;;;;8.70;4.35;;;;;;;11.99;62.70;98769.16;5039423;28;20109;-66
2021/04/01 04:35:44;;;;;;;5.73;4.50;;;;;;;11.86;63.45;98764.31;5037567;28;20119;-68
2021/04/01 04:38:09;;;;;;;11.07;4.83;;;;;;;11.65;64.03;98775.00;5039243;28;20286;-67
2021/04/01 04:40:35;;;;;;;6.87;4.47;;;;;;;11.44;64.91;98765.19;5043975;28;20060;-68
2021/04/01 04:43:00;;;;;;;9.20;5.10;;;;;;;11.26;65.73;98755.28;5036230;28;20053;-66
2021/04/01 04:45:26;;;;;;;5.20;4.07;;;;;;;11.28;66.00;98764.66;5039876;28;20032;-66
2021/04/01 04:47:51;;;;;;;10.40;4.53;;;;;;;11.17;66.56;98765.72;5039575;28;20047;-65
2021/04/01 04:50:17;;;;;;;6.70;4.47;;;;;;;11.09;66.58;98762.44;5040677;28;20032;-67
2021/04/01 04:52:42;;;;;;;14.10;5.83;;;;;;;10.99;67.07;98757.47;5033292;28;20037;-67
2021/04/01 04:55:10;;;;;;;9.43;6.07;;;;;;;10.89;67.06;98757.69;5042973;28;20029;-68
2021/04/01 05:05:15;;;;;;;8.60;4.90;;;;;;;10.85;67.91;98758.63;5034307;28;20112;-65
2021/04/01 05:07:40;;;;;;;10.17;4.73;;;;;;;10.78;67.91;98757.88;5037547;28;20104;-66
2021/04/01 05:10:06;;;;;;;5.77;4.47;;;;;;;10.79;68.06;98757.00;5040720;28;20032;-65
2021/04/01 05:12:31;;;;;;;8.87;5.50;;;;;;;10.81;68.30;98760.41;5036142;28;20084;-66
2021/04/01 05:14:57;;;;;;;7.10;4.83;;;;;;;10.83;68.06;98758.66;5046132;28;20152;-66
2021/04/01 05:17:22;;;;;;;6.03;4.63;;;;;;;10.84;67.29;98749.22;5035743;28;20025;-66
2021/04/01 05:19:51;;;;;;;8.13;5.30;;;;;;;10.86;67.27;98739.81;5035192;28;20043;-64
2021/04/01 05:25:02;;;;;;;8.73;4.80;;;;;;;11.10;67.11;98749.59;5035420;28;20107;-64
2021/04/01 05:27:52;;;;;;;10.03;4.60;;;;;;;11.22;66.76;98748.50;5034215;28;20029;-66
2021/04/01 05:30:13;;;;;;;;;;;;;;;11.38;66.86;98742.19;5033128;28;20195;-66
2021/04/01 05:32:42;;;;;;;7.17;4.97;;;;;;;11.44;66.74;98748.06;5035455;28;20290;-64
2021/04/01 05:35:11;;;;;;;6.30;4.87;;;;;;;11.57;65.66;98742.66;5038804;28;20076;-64
2021/04/01 05:37:38;;;;;;;11.30;5.13;;;;;;;11.67;65.32;98739.84;5036520;28;20095;-65
2021/04/01 05:40:05;;;;;;;8.75;5.78;;;;;;;11.84;65.43;98742.06;5041544;28;20027;-65
2021/04/01 05:42:35;;;;;;;17.48;6.28;;;;;;;11.85;64.80;98723.22;5038914;28;20033;-65
2021/04/01 05:47:57;;;;;;;9.15;5.60;;;;;;;12.23;64.38;98736.03;5031667;28;20037;-65
2021/04/01 05:54:05;;;;;;;9.80;5.20;;;;;;;12.56;63.07;98741.25;4998555;28;20046;-65
2021/04/01 06:04:11;;;;;;;11.07;4.68;;;;;;;13.20;61.06;98758.41;4996219;28;20046;-66
2021/04/01 06:09:27;;;;;;;5.97;4.90;;;;;;;13.54;60.02;98761.72;4996467;28;20026;-68
2021/04/01 06:11:55;;;;;;;8.30;5.13;;;;;;;13.70;60.07;98752.69;5000010;28;20048;-66
2021/04/01 06:14:32;;;;;;;10.30;6.63;;;;;;;13.91;59.58;98758.94;4996527;28;20030;-66
2021/04/01 06:17:03;;;;;;;13.45;5.15;;;;;;;14.08;58.28;98758.41;4999423;28;20046;-66
2021/04/01 06:19:33;;;;;;;10.13;5.68;;;;;;;14.30;58.49;98746.50;4999418;28;20068;-65
2021/04/01 06:22:06;;;;;;;6.22;5.10;;;;;;;14.57;57.59;98749.97;4995466;28;20125;-66
2021/04/01 06:24:33;;;;;;;8.70;5.32;;;;;;;14.78;56.11;98750.97;4990603;28;20047;-66
2021/04/01 06:27:14;;;;;;;8.73;5.18;;;;;;;14.99;55.72;98760.56;4974660;28;20039;-65
2021/04/01 06:32:30;;;;;;;8.75;4.80;;;;;;;15.18;54.77;98748.72;5034163;28;20037;-66
2021/04/01 06:34:56;;;;;;;7.55;5.32;;;;;;;15.42;54.58;98757.31;5035480;28;20044;-66
2021/04/01 06:37:49;;;;;;;12.20;4.70;;;;;;;15.69;53.77;98760.66;5034918;28;20070;-66
2021/04/01 06:40:09;;;;;;;8.77;5.32;;;;;;;15.94;53.36;98751.06;5033759;28;20033;-63
2021/04/01 06:43:04;;;;;;;11.30;6.50;;;;;;;16.29;52.46;98747.13;5036674;28;20040;-67
2021/04/01 06:45:30;;;;;;;12.83;6.23;;;;;;;16.52;51.51;98748.75;5035440;28;20264;-67
2021/04/01 06:47:57;;;;;;;9.82;5.68;;;;;;;16.73;51.10;98742.72;5036195;28;20290;-67
2021/04/01 06:50:29;;;;;;;9.32;4.82;;;;;;;16.97;50.10;98743.44;5033065;28;20305;-67
2021/04/01 06:58:53;;;;;;;6.95;4.72;;;;;;;17.86;48.42;98741.19;5036841;28;20072;-67
2021/04/01 07:01:17;;;;;;;6.90;4.80;;;;;;;18.16;47.66;98724.97;5037736;28;20051;-67
2021/04/01 07:03:47;;;;;;;5.85;5.00;;;;;;;18.55;46.37;98724.81;5038153;28;20022;-67
2021/04/01 07:06:23;;;;;;;7.65;5.60;;;;;;;18.93;42.87;98720.28;5036214;28;20053;-67
2021/04/01 07:11:25;;;;;;;10.23;6.25;;;;;;;19.51;40.20;98722.50;5036563;28;20095;-67
2021/04/01 07:13:55;;;;;;;14.40;6.65;;;;;;;19.71;39.44;98711.84;5033824;28;20025;-67
2021/04/01 07:16:34;;;;;;;8.27;7.00;;;;;;;19.84;38.90;98704.19;5036486;28;20033;-67
2021/04/01 07:35:46;;;;;;;11.40;7.78;;;;;;;20.54;35.32;98682.00;5041261;28;20083;-67
2021/04/01 07:49:03;;;;;;;12.63;7.50;;;;;;;20.61;34.46;98691.97;5040630;28;20057;-68
2021/04/01 07:54:25;;;;;;;14.98;8.35;;;;;;;20.54;34.92;98688.03;5038326;28;20103;-65
2021/04/01 07:57:08;;;;;;;11.45;7.13;;;;;;;20.59;35.00;98678.19;5037326;28;20370;-64
2021/04/01 08:05:06;;;;;;;12.82;8.95;;;;;;;20.80;34.19;98689.94;5036545;28;20043;-66
2021/04/01 08:07:33;;;;;;;15.20;9.65;;;;;;;20.58;33.91;98697.34;5038377;28;20307;-66
2021/04/01 08:10:05;;;;;;;11.85;8.55;;;;;;;20.68;33.99;98682.00;5037861;28;20025;-66
2021/04/01 08:12:39;;;;;;;12.63;8.32;;;;;;;20.66;34.48;98692.53;5037475;28;20097;-72
2021/04/01 08:15:14;;;;;;;15.27;9.17;;;;;;;20.72;33.79;98684.34;5038261;28;20037;-73
2021/04/01 08:20:21;;;;;;;14.82;9.50;;;;;;;20.97;33.12;98692.38;5040981;28;20174;-72
2021/04/01 08:23:18;;;;;;;11.13;9.10;;;;;;;20.89;33.05;98702.44;5027868;28;20060;-71
2021/04/01 08:33:54;;;;;;;13.00;8.85;;;;;;;20.92;34.38;98660.53;5035647;28;20084;-72
2021/04/01 08:36:21;;;;;;;11.55;8.45;;;;;;;21.32;32.94;98673.78;5034669;28;20316;-72
2021/04/01 08:38:47;;;;;;;12.63;9.18;;;;;;;21.56;32.65;98672.25;5033472;28;20375;-72
2021/04/01 08:41:39;;;;;;;14.70;8.52;;;;;;;21.79;32.79;98653.38;5042075;28;20040;-72
2021/04/01 08:44:26;;;;;;;11.45;8.80;;;;;;;22.04;32.14;98654.44;5021414;28;20161;-71
2021/04/01 08:47:16;;;;;;;13.18;9.20;;;;;;;22.51;32.00;98653.91;5039298;28;20030;-71
2021/04/01 08:49:52;;;;;;;13.20;7.82;;;;;;;23.07;31.55;98655.31;5036376;28;20037;-72
2021/04/01 08:52:20;;;;;;;13.52;10.00;;;;;;;22.92;29.22;98651.94;5036519;28;20021;-71
2021/04/01 08:55:19;;;;;;;14.55;10.35;;;;;;;22.83;29.07;98651.78;5033861;28;20057;-74
2021/04/01 08:58:08;;;;;;;14.73;9.98;;;;;;;23.00;28.75;98636.56;5041801;28;20045;-69
2021/04/01 09:00:36;;;;;;;11.13;9.35;;;;;;;22.99;29.06;98621.84;5034841;28;20025;-72
2021/04/01 09:03:03;;;;;;;14.52;9.82;;;;;;;23.07;29.02;98630.00;5033859;28;20124;-70
2021/04/01 09:05:29;;;;;;;12.70;9.48;;;;;;;22.99;29.25;98632.31;5036743;28;20014;-68
2021/04/01 09:08:01;;;;;;;14.30;10.63;;;;;;;22.96;28.89;98626.41;5035669;28;20067;-66
2021/04/01 09:10:31;;;;;;;16.10;10.57;;;;;;;22.52;29.43;98632.06;5034800;28;20029;-68
2021/04/01 09:18:23;;;;;;;17.92;10.25;;;;;;;22.36;29.15;98637.50;5040505;28;20037;-68
2021/04/01 09:20:50;;;;;;;14.07;10.77;;;;;;;22.26;29.65;98639.03;5034147;28;20035;-68
2021/04/01 09:23:17;;;;;;;17.95;11.02;;;;;;;22.05;29.91;98638.66;5036890;28;20051;-69
2021/04/01 09:25:45;;;;;;;17.55;10.10;;;;;;;21.93;30.04;98634.25;5038006;28;20033;-69
2021/04/01 09:28:13;;;;;;;18.25;11.23;;;;;;;22.15;29.89;98634.50;5033653;28;20079;-67
2021/04/01 09:30:40;;;;;;;20.10;10.00;;;;;;;22.16;29.64;98633.56;5036894;28;20079;-68
2021/04/01 09:33:25;;;;;;;17.02;10.35;;;;;;;22.23;29.38;98631.41;5024512;28;20025;-68
2021/04/01 09:36:05;;;;;;;15.25;10.77;;;;;;;22.24;29.90;98633.06;5040955;28;20082;-68
2021/04/01 09:38:39;;;;;;;17.65;11.98;;;;;;;22.39;29.81;98639.88;5037992;28;20017;-69
2021/04/01 09:41:05;;;;;;;18.70;11.15;;;;;;;22.28;29.73;98624.06;5050068;28;20286;-68
2021/04/01 09:43:31;;;;;;;16.33;11.05;;;;;;;22.13;30.04;98635.56;5042660;28;20071;-69
2021/04/01 09:46:09;;;;;;;20.08;10.57;;;;;;;22.01;30.31;98637.19;5037896;28;20318;-68
2021/04/01 09:48:39;;;;;;;14.50;10.98;;;;;;;21.72;30.30;98614.72;5036804;28;20034;-68
2021/04/01 09:51:16;;;;;;;18.00;11.35;;;;;;;21.55;30.60;98641.06;5035018;28;20120;-70
2021/04/01 09:53:52;;;;;;;16.55;12.13;;;;;;;21.63;30.84;98631.81;5035531;28;20184;-68
2021/04/01 09:56:23;;;;;;;17.63;11.55;;;;;;;21.71;30.52;98626.09;5035247;28;20029;-67
2021/04/01 09:58:50;;;;;;;16.35;11.02;;;;;;;21.67;30.62;98627.22;5034786;28;20140;-68
2021/04/01 10:01:33;;;;;;;16.65;11.43;;;;;;;21.64;31.17;98625.63;5035290;28;20043;-67
2021/04/01 10:04:08;;;;;;;20.23;11.65;;;;;;;21.56;30.87;98624.44;5036788;28;20129;-72
2021/04/01 10:06:44;;;;;;;19.48;11.63;;;;;;;21.50;30.47;98624.84;5035202;28;20036;-71
2021/04/01 10:09:13;;;;;;;18.80;11.73;;;;;;;21.27;31.47;98619.28;5035901;28;20079;-67
2021/04/01 10:11:56;;;;;;;18.67;11.82;;;;;;;21.47;31.24;98630.28;5036271;28;20083;-66
2021/04/01 10:14:23;;;;;;;16.73;11.43;;;;;;;21.58;30.76;98617.38;5032344;28;20041;-66
2021/04/01 10:16:56;;;;;;;18.52;11.63;;;;;;;21.64;31.04;98612.59;5037635;28;20017;-66
2021/04/01 10:19:26;;;;;;;21.38;12.20;;;;;;;21.97;29.64;98624.44;5034611;28;20730;-66
2021/04/01 10:21:52;;;;;;;17.08;12.23;;;;;;;21.99;29.69;98591.22;5037731;28;20041;-71
2021/04/01 10:24:37;;;;;;;19.45;11.75;;;;;;;22.33;29.04;98624.59;5032857;28;20148;-71
2021/04/01 10:32:13;;;;;;;17.83;12.05;;;;;;;22.59;28.25;98591.50;5040867;28;20333;-73
2021/04/01 10:34:52;;;;;;;16.70;11.27;;;;;;;22.59;27.15;98584.50;5040694;28;20108;-75
2021/04/01 10:37:20;;;;;;;20.35;12.45;;;;;;;22.66;27.72;98572.66;5033286;28;20413;-74
2021/04/01 10:39:46;;;;;;;16.98;12.13;;;;;;;22.85;27.51;98587.13;5041344;28;20037;-75
2021/04/01 10:42:14;;;;;;;17.58;12.07;;;;;;;23.07;26.69;98571.59;5039949;28;20025;-73
2021/04/01 10:44:40;;;;;;;17.20;12.23;;;;;;;23.31;26.92;98555.94;5037472;28;20045;-75
2021/04/01 10:47:07;;;;;;;17.95;12.45;;;;;;;23.48;26.44;98584.38;5039804;28;20255;-66
2021/04/01 10:49:37;;;;;;;19.73;12.65;;;;;;;22.93;26.78;98569.13;5039294;28;20460;-66
2021/04/01 10:52:05;;;;;;;23.88;12.75;;;;;;;22.65;26.56;98560.56;5035885;28;20365;-67
2021/04/01 10:54:35;;;;;;;18.25;12.18;;;;;;;22.84;26.52;98569.75;5040058;28;20063;-66
2021/04/01 10:57:02;;;;;;;20.20;11.82;;;;;;;22.98;26.65;98565.25;5041500;28;20049;-66
2021/04/01 10:59:46;;;;;;;20.50;11.75;;;;;;;22.64;27.20;98577.19;5041050;28;20179;-67
2021/04/01 11:02:18;;;;;;;22.30;12.52;;;;;;;22.78;27.15;98555.34;5040896;28;20124;-67
2021/04/01 11:04:46;;;;;;;17.80;12.25;;;;;;;22.94;27.23;98553.31;5037877;28;20092;-68
2021/04/01 11:07:12;;;;;;;18.40;12.00;;;;;;;22.86;27.15;98552.19;5037348;28;20029;-65
2021/04/01 11:09:45;;;;;;;20.60;12.68;;;;;;;22.91;26.70;98552.72;5038461;28;20021;-64
2021/04/01 11:12:17;;;;;;;20.15;12.18;;;;;;;22.74;26.78;98544.25;5042308;28;20025;-66
2021/04/01 11:15:00;;;;;;;15.15;10.90;;;;;;;22.92;27.08;98536.06;5048650;28;20429;-66
2021/04/01 11:17:30;;;;;;;17.42;11.77;;;;;;;23.25;26.40;98525.84;5042375;28;20083;-65
2021/04/01 11:19:59;;;;;;;14.27;11.45;;;;;;;23.36;26.03;98525.88;5038782;28;20026;-65
2021/04/01 11:22:25;;;;;;;13.93;9.85;;;;;;;23.62;25.97;98531.88;5039773;28;20375;-66
2021/04/01 11:24:51;;;;;;;16.48;10.25;;;;;;;23.42;25.89;98514.13;5039469;28;20391;-66
2021/04/01 11:27:19;;;;;;;18.90;10.38;;;;;;;23.55;25.93;98518.38;5040152;28;20021;-66
2021/04/01 11:29:52;;;;;;;18.02;10.43;;;;;;;23.64;25.76;98529.94;5037579;28;20021;-66
2021/04/01 11:32:27;;;;;;;14.23;10.52;;;;;;;23.70;25.36;98520.81;5036506;28;20029;-65
2021/04/01 11:34:55;;;;;;;12.15;9.50;;;;;;;23.66;25.75;98507.13;5042614;28;20098;-70
2021/04/01 11:37:24;;;;;;;15.07;10.52;;;;;;;23.71;26.26;98530.34;5039176;28;20033;-66
2021/04/01 11:39:57;;;;;;;13.13;10.10;;;;;;;23.46;24.93;98513.84;5040012;28;20041;-67
2021/04/01 11:42:23;;;;;;;20.38;11.13;;;;;;;23.20;25.81;98512.25;5037967;28;20025;-66
2021/04/01 11:44:56;;;;;;;15.90;9.80;;;;;;;23.09;26.03;98514.78;5036610;28;20083;-68
2021/04/01 11:47:24;;;;;;;16.23;10.27;;;;;;;23.05;26.18;98506.31;5031390;28;20095;-69
2021/04/01 11:49:51;;;;;;;13.15;9.63;;;;;;;23.07;26.25;98498.38;5036346;28;20033;-68
2021/04/01 11:52:18;;;;;;;10.48;8.40;;;;;;;23.12;25.88;98480.56;5040340;28;20382;-69
2021/04/01 11:54:45;;;;;;;14.15;10.40;;;;;;;23.41;24.90;98486.28;5037866;28;20094;-73
2021/04/01 11:57:24;;;;;;;14.35;9.77;;;;;;;23.33;25.63;98489.47;5036274;28;20097;-72
2021/04/01 12:00:22;;;;;;;15.25;10.55;;;;;;;23.39;24.94;98480.31;5037816;28;20062;-72
2021/04/01 12:02:56;;;;;;;13.73;10.05;;;;;;;23.34;25.66;98485.88;5037639;28;20021;-73
2021/04/01 12:05:23;;;;;;;16.88;9.82;;;;;;;23.39;25.09;98467.25;5038327;28;20279;-74
2021/04/01 12:07:49;;;;;;;18.67;9.90;;;;;;;23.46;25.01;98482.44;5035376;28;20040;-72
2021/04/01 12:10:14;;;;;;;13.10;8.82;;;;;;;23.53;25.03;98480.19;5037355;28;20026;-72
2021/04/01 12:12:40;;;;;;;13.25;9.55;;;;;;;23.68;25.43;98469.41;5038913;28;20029;-72
2021/04/01 12:15:06;;;;;;;14.75;8.75;;;;;;;23.84;24.88;98470.88;5037431;28;20044;-74
2021/04/01 12:17:35;;;;;;;13.07;8.80;;;;;;;23.77;24.39;98462.63;5044680;28;20029;-73
2021/04/01 12:20:03;;;;;;;15.75;8.60;;;;;;;23.89;23.25;98455.66;5039501;28;20298;-74
2021/04/01 12:22:37;;;;;;;11.25;8.27;;;;;;;23.91;22.63;98466.84;5035830;28;20092;-73
2021/04/01 12:25:06;;;;;;;12.18;7.75;;;;;;;23.83;22.63;98477.91;5039222;28;20029;-72
2021/04/01 12:27:32;;;;;;;11.85;8.88;;;;;;;23.80;21.91;98461.59;5028079;28;20073;-72
2021/04/01 12:29:58;;;;;;;13.27;9.48;;;;;;;23.71;22.79;98457.88;5037357;28;20067;-73
2021/04/01 12:32:27;;;;;;;13.13;9.27;;;;;;;23.88;22.48;98459.22;5036520;28;20045;-74
2021/04/01 12:35:07;;;;;;;17.20;8.80;;;;;;;23.86;21.34;98438.38;5035631;28;20033;-73
2021/04/01 12:37:33;;;;;;;12.38;8.73;;;;;;;24.07;21.60;98438.53;5036579;28;20053;-67
2021/04/01 12:40:09;;;;;;;13.55;9.13;;;;;;;24.13;22.24;98433.66;5035855;28;20057;-68
2021/04/01 12:42:34;;;;;;;14.23;8.75;;;;;;;24.25;22.78;98420.59;5035775;28;20438;-68
2021/04/01 12:45:00;;;;;;;15.40;9.32;;;;;;;24.35;23.31;98435.47;5027085;28;20131;-68
2021/04/01 12:47:28;;;;;;;13.68;8.75;;;;;;;24.35;23.04;98421.53;5034344;28;20022;-68
2021/04/01 12:50:00;;;;;;;11.27;9.73;;;;;;;24.45;23.67;98427.72;5034389;28;20021;-68
2021/04/01 12:52:26;;;;;;;13.35;9.05;;;;;;;24.52;23.02;98414.03;5037230;28;20067;-68
2021/04/01 12:54:52;;;;;;;12.85;9.82;;;;;;;24.19;22.69;98406.16;5036107;28;20029;-68
2021/04/01 12:57:20;;;;;;;15.10;9.23;;;;;;;23.82;22.72;98420.41;5036481;28;20079;-68
2021/04/01 12:59:52;;;;;;;16.00;9.23;;;;;;;23.86;23.19;98421.84;5042013;28;20314;-67
2021/04/01 13:02:21;;;;;;;13.02;9.13;;;;;;;23.85;22.58;98407.91;5033672;28;20359;-76
2021/04/01 13:04:57;;;;;;;12.50;9.15;;;;;;;23.92;22.99;98416.97;5032390;28;20044;-76
2021/04/01 13:07:27;;;;;;;11.95;7.90;;;;;;;23.92;22.83;98410.91;5037312;28;20032;-77
2021/04/01 13:12:38;;;;;;;14.40;8.57;;;;;;;23.88;22.48;98405.06;5036033;28;20039;-74
2021/04/01 13:15:05;;;;;;;14.68;9.80;;;;;;;23.81;22.96;98403.00;5039709;28;20128;-75
2021/04/01 13:17:31;;;;;;;16.42;8.50;;;;;;;23.93;23.17;98402.09;5040646;28;20155;-72
2021/04/01 13:19:56;;;;;;;13.73;8.43;;;;;;;24.05;22.76;98404.59;5036896;28;20021;-73
2021/04/01 13:22:31;;;;;;;15.60;8.25;;;;;;;24.11;22.58;98404.13;5036502;28;20352;-73
2021/04/01 13:25:15;;;;;;;11.85;8.90;;;;;;;24.01;23.02;98397.09;5039144;28;20042;-73
2021/04/01 13:27:46;;;;;;;19.00;9.13;;;;;;;24.03;23.32;98396.03;5035942;28;20351;-75
2021/04/01 13:30:12;;;;;;;12.25;8.07;;;;;;;24.01;23.38;98405.81;5035458;28;20033;-74
2021/04/01 13:33:08;;;;;;;12.13;7.45;;;;;;;24.03;23.45;98397.81;5036584;28;20484;-73
2021/04/01 13:38:14;;;;;;;13.48;8.00;;;;;;;23.93;22.94;98387.19;5033812;28;20319;-75